KVKS/VKS METAR and TAF weather

Enter ICAO airport designator
Station Type Date Time Source
KVKS METAR 2020/06/06 20:55 UTC NOAA

KVKS 062055Z AUTO 08008G13KT 030V120 10SM FEW042 32/21 A2985 RMK A01


Station Type Date Time Source
KVKS Decoded METAR 2020/06/06 20:55 UTC NOAA

Vicksburg Municipal, MS, United States (KVKS) 32-14N 090-56W
Jun 06, 2020 - 04:55 PM EDT / 2020.06.06 2055 UTC
Wind: from the E (080 degrees) at 9 MPH (8 KT) gusting to 15 MPH (13 KT) (direction variable):0
Visibility: 10 mile(s):0
Sky conditions: mostly clear
Temperature: 89 F (32 C)
Dew Point: 69 F (21 C)
Relative Humidity: 52%
Pressure (altimeter): 29.85 in. Hg (1010 hPa)
ob: KVKS 062055Z AUTO 08008G13KT 030V120 10SM FEW042 32/21 A2985 RMK A01
cycle: 21

Station Type Date Time Source
KVKS TAF UTC NOAA

Error!

Example: see airport list